sensor_id;sensor_type;location;lat;lon;timestamp;temperature;humidity
19974;DHT22;10148;47.694;9.442;2022-08-11T00:00:08;19.20;99.90
19974;DHT22;10148;47.694;9.442;2022-08-11T00:02:39;19.10;99.90
19974;DHT22;10148;47.694;9.442;2022-08-11T00:05:10;19.10;99.90
19974;DHT22;10148;47.694;9.442;2022-08-11T00:07:48;19.00;99.90
19974;DHT22;10148;47.694;9.442;2022-08-11T00:10:19;19.00;99.90
19974;DHT22;10148;47.694;9.442;2022-08-11T00:12:57;19.00;99.90
19974;DHT22;10148;47.694;9.442;2022-08-11T00:15:24;19.00;99.90
19974;DHT22;10148;47.694;9.442;2022-08-11T00:17:56;19.00;99.90
19974;DHT22;10148;47.694;9.442;2022-08-11T00:20:30;19.00;99.90
19974;DHT22;10148;47.694;9.442;2022-08-11T00:23:02;18.90;99.90
19974;DHT22;10148;47.694;9.442;2022-08-11T00:25:30;18.90;99.90
19974;DHT22;10148;47.694;9.442;2022-08-11T00:28:01;18.90;99.90
19974;DHT22;10148;47.694;9.442;2022-08-11T00:30:38;18.90;99.90
19974;DHT22;10148;47.694;9.442;2022-08-11T00:33:04;18.90;99.90
19974;DHT22;10148;47.694;9.442;2022-08-11T00:35:30;18.80;99.90
19974;DHT22;10148;47.694;9.442;2022-08-11T00:37:59;18.80;99.90
19974;DHT22;10148;47.694;9.442;2022-08-11T01:12:25;18.30;99.90
19974;DHT22;10148;47.694;9.442;2022-08-11T01:24:02;18.20;99.90
19974;DHT22;10148;47.694;9.442;2022-08-11T01:29:32;18.20;99.90
19974;DHT22;10148;47.694;9.442;2022-08-11T01:41:13;18.10;99.90
19974;DHT22;10148;47.694;9.442;2022-08-11T01:50:34;18.00;99.90
19974;DHT22;10148;47.694;9.442;2022-08-11T01:53:33;17.90;99.90
19974;DHT22;10148;47.694;9.442;2022-08-11T01:59:17;17.90;99.90
19974;DHT22;10148;47.694;9.442;2022-08-11T02:04:20;17.80;99.90
19974;DHT22;10148;47.694;9.442;2022-08-11T02:09:57;17.80;99.90
19974;DHT22;10148;47.694;9.442;2022-08-11T02:12:45;17.80;99.90
19974;DHT22;10148;47.694;9.442;2022-08-11T02:17:58;17.70;99.90
19974;DHT22;10148;47.694;9.442;2022-08-11T02:23:28;17.70;99.90
19974;DHT22;10148;47.694;9.442;2022-08-11T02:26:21;17.60;99.90
19974;DHT22;10148;47.694;9.442;2022-08-11T02:32:05;17.60;99.90
19974;DHT22;10148;47.694;9.442;2022-08-11T02:35:07;17.60;99.90
19974;DHT22;10148;47.694;9.442;2022-08-11T02:44:05;17.40;99.90
19974;DHT22;10148;47.694;9.442;2022-08-11T02:47:00;17.40;99.90
19974;DHT22;10148;47.694;9.442;2022-08-11T02:49:47;17.30;99.90
19974;DHT22;10148;47.694;9.442;2022-08-11T02:52:26;17.30;99.90
19974;DHT22;10148;47.694;9.442;2022-08-11T02:55:00;17.30;99.90
19974;DHT22;10148;47.694;9.442;2022-08-11T02:57:41;17.20;99.90
19974;DHT22;10148;47.694;9.442;2022-08-11T03:00:10;17.20;99.90
19974;DHT22;10148;47.694;9.442;2022-08-11T03:05:25;17.20;99.90
19974;DHT22;10148;47.694;9.442;2022-08-11T03:08:12;17.10;99.90
19974;DHT22;10148;47.694;9.442;2022-08-11T03:17:05;17.10;99.90
19974;DHT22;10148;47.694;9.442;2022-08-11T03:22:29;17.00;99.90
19974;DHT22;10148;47.694;9.442;2022-08-11T03:25:01;17.00;99.90
19974;DHT22;10148;47.694;9.442;2022-08-11T03:32:32;17.00;99.90
19974;DHT22;10148;47.694;9.442;2022-08-11T03:35:02;17.00;99.90
19974;DHT22;10148;47.694;9.442;2022-08-11T03:37:47;17.00;99.90
19974;DHT22;10148;47.694;9.442;2022-08-11T03:43:47;16.90;99.90
19974;DHT22;10148;47.694;9.442;2022-08-11T03:46:19;16.80;99.90
19974;DHT22;10148;47.694;9.442;2022-08-11T03:55:09;16.80;99.90
19974;DHT22;10148;47.694;9.442;2022-08-11T04:01:16;16.70;99.90
19974;DHT22;10148;47.694;9.442;2022-08-11T04:09:39;16.70;99.90
19974;DHT22;10148;47.694;9.442;2022-08-11T04:27:52;16.60;99.90
19974;DHT22;10148;47.694;9.442;2022-08-11T04:41:52;16.60;99.90
19974;DHT22;10148;47.694;9.442;2022-08-11T04:55:07;16.70;99.90
19974;DHT22;10148;47.694;9.442;2022-08-11T05:00:40;16.70;99.90
19974;DHT22;10148;47.694;9.442;2022-08-11T05:04:11;16.70;99.90
19974;DHT22;10148;47.694;9.442;2022-08-11T05:12:35;16.80;99.90
19974;DHT22;10148;47.694;9.442;2022-08-11T05:15:11;16.90;99.90
19974;DHT22;10148;47.694;9.442;2022-08-11T05:18:18;16.90;99.90
19974;DHT22;10148;47.694;9.442;2022-08-11T05:21:07;16.90;99.90
19974;DHT22;10148;47.694;9.442;2022-08-11T05:24:02;17.00;99.90
19974;DHT22;10148;47.694;9.442;2022-08-11T05:26:49;17.00;99.90
19974;DHT22;10148;47.694;9.442;2022-08-11T05:32:33;17.10;99.90
19974;DHT22;10148;47.694;9.442;2022-08-11T05:35:25;17.20;99.90
19974;DHT22;10148;47.694;9.442;2022-08-11T05:37:54;17.10;99.90
19974;DHT22;10148;47.694;9.442;2022-08-11T05:40:46;17.20;99.90
19974;DHT22;10148;47.694;9.442;2022-08-11T05:43:32;17.20;99.90
19974;DHT22;10148;47.694;9.442;2022-08-11T05:46:17;17.20;99.90
19974;DHT22;10148;47.694;9.442;2022-08-11T05:49:06;17.20;99.90
19974;DHT22;10148;47.694;9.442;2022-08-11T05:51:51;17.20;99.90
19974;DHT22;10148;47.694;9.442;2022-08-11T05:54:36;17.30;99.90
19974;DHT22;10148;47.694;9.442;2022-08-11T05:57:23;17.30;99.90
19974;DHT22;10148;47.694;9.442;2022-08-11T05:59:58;17.40;99.90
19974;DHT22;10148;47.694;9.442;2022-08-11T06:02:24;17.40;99.90
19974;DHT22;10148;47.694;9.442;2022-08-11T06:04:56;17.40;99.90
19974;DHT22;10148;47.694;9.442;2022-08-11T06:07:27;17.50;99.90
19974;DHT22;10148;47.694;9.442;2022-08-11T06:09:54;17.50;99.90
19974;DHT22;10148;47.694;9.442;2022-08-11T06:12:27;17.50;99.90
19974;DHT22;10148;47.694;9.442;2022-08-11T06:15:02;17.50;99.90
19974;DHT22;10148;47.694;9.442;2022-08-11T06:17:30;17.40;99.90
19974;DHT22;10148;47.694;9.442;2022-08-11T06:20:02;17.50;99.90
19974;DHT22;10148;47.694;9.442;2022-08-11T06:22:29;17.50;99.90
19974;DHT22;10148;47.694;9.442;2022-08-11T06:24:57;17.60;99.90
19974;DHT22;10148;47.694;9.442;2022-08-11T06:27:25;17.60;99.90
19974;DHT22;10148;47.694;9.442;2022-08-11T06:29:51;17.70;99.90
19974;DHT22;10148;47.694;9.442;2022-08-11T06:32:19;17.80;99.90
19974;DHT22;10148;47.694;9.442;2022-08-11T06:37:52;18.00;99.90
19974;DHT22;10148;47.694;9.442;2022-08-11T06:40:42;18.10;99.90
19974;DHT22;10148;47.694;9.442;2022-08-11T06:46:11;18.40;99.90
19974;DHT22;10148;47.694;9.442;2022-08-11T06:48:40;18.40;99.90
19974;DHT22;10148;47.694;9.442;2022-08-11T06:51:09;18.40;99.90
19974;DHT22;10148;47.694;9.442;2022-08-11T06:53:55;18.60;99.90
19974;DHT22;10148;47.694;9.442;2022-08-11T06:56:29;18.70;99.90
19974;DHT22;10148;47.694;9.442;2022-08-11T06:59:15;18.80;99.90
19974;DHT22;10148;47.694;9.442;2022-08-11T07:02:20;18.80;99.90
19974;DHT22;10148;47.694;9.442;2022-08-11T07:04:59;18.90;99.90
19974;DHT22;10148;47.694;9.442;2022-08-11T07:14:00;20.30;99.90
19974;DHT22;10148;47.694;9.442;2022-08-11T07:16:47;20.50;99.90
19974;DHT22;10148;47.694;9.442;2022-08-11T07:19:21;20.40;99.90
19974;DHT22;10148;47.694;9.442;2022-08-11T07:22:07;20.20;99.90
19974;DHT22;10148;47.694;9.442;2022-08-11T07:25:03;20.00;99.90
19974;DHT22;10148;47.694;9.442;2022-08-11T07:27:57;20.00;99.90
19974;DHT22;10148;47.694;9.442;2022-08-11T07:30:43;19.80;99.90
19974;DHT22;10148;47.694;9.442;2022-08-11T07:33:10;20.00;99.90
19974;DHT22;10148;47.694;9.442;2022-08-11T07:35:49;19.90;99.90
19974;DHT22;10148;47.694;9.442;2022-08-11T07:38:21;19.90;99.90
19974;DHT22;10148;47.694;9.442;2022-08-11T07:40:47;19.80;99.90
19974;DHT22;10148;47.694;9.442;2022-08-11T07:43:13;19.90;99.90
19974;DHT22;10148;47.694;9.442;2022-08-11T07:45:43;20.00;99.90
19974;DHT22;10148;47.694;9.442;2022-08-11T07:48:28;20.10;99.90
19974;DHT22;10148;47.694;9.442;2022-08-11T07:51:18;20.20;99.90
19974;DHT22;10148;47.694;9.442;2022-08-11T07:54:03;20.30;99.90
19974;DHT22;10148;47.694;9.442;2022-08-11T07:56:33;20.40;99.90
19974;DHT22;10148;47.694;9.442;2022-08-11T07:58:58;20.40;99.90
19974;DHT22;10148;47.694;9.442;2022-08-11T08:01:43;20.60;99.90
19974;DHT22;10148;47.694;9.442;2022-08-11T08:04:27;20.50;99.90
19974;DHT22;10148;47.694;9.442;2022-08-11T08:07:12;20.50;99.90
19974;DHT22;10148;47.694;9.442;2022-08-11T08:09:56;20.60;99.90
19974;DHT22;10148;47.694;9.442;2022-08-11T08:12:41;20.60;99.90
19974;DHT22;10148;47.694;9.442;2022-08-11T08:15:25;20.80;99.90
19974;DHT22;10148;47.694;9.442;2022-08-11T08:18:10;20.90;99.90
19974;DHT22;10148;47.694;9.442;2022-08-11T08:20:48;21.10;99.90
19974;DHT22;10148;47.694;9.442;2022-08-11T08:23:14;21.60;99.90
19974;DHT22;10148;47.694;9.442;2022-08-11T08:25:43;21.90;99.90
19974;DHT22;10148;47.694;9.442;2022-08-11T08:28:12;22.10;99.90
19974;DHT22;10148;47.694;9.442;2022-08-11T08:30:39;22.20;99.90
19974;DHT22;10148;47.694;9.442;2022-08-11T08:33:16;22.40;99.90
19974;DHT22;10148;47.694;9.442;2022-08-11T08:35:43;22.50;99.90
19974;DHT22;10148;47.694;9.442;2022-08-11T08:38:09;22.50;99.90
19974;DHT22;10148;47.694;9.442;2022-08-11T08:40:38;22.50;99.90
19974;DHT22;10148;47.694;9.442;2022-08-11T08:43:07;22.40;99.90
19974;DHT22;10148;47.694;9.442;2022-08-11T08:45:36;22.30;99.90
19974;DHT22;10148;47.694;9.442;2022-08-11T08:48:04;22.10;99.90
19974;DHT22;10148;47.694;9.442;2022-08-11T08:50:34;22.20;99.90
19974;DHT22;10148;47.694;9.442;2022-08-11T08:53:33;22.20;99.90
19974;DHT22;10148;47.694;9.442;2022-08-11T08:56:00;22.00;99.90
19974;DHT22;10148;47.694;9.442;2022-08-11T08:58:26;22.00;99.90
19974;DHT22;10148;47.694;9.442;2022-08-11T09:00:55;22.00;99.90
19974;DHT22;10148;47.694;9.442;2022-08-11T09:03:22;22.10;99.90
19974;DHT22;10148;47.694;9.442;2022-08-11T09:05:52;22.10;99.90
19974;DHT22;10148;47.694;9.442;2022-08-11T09:08:19;22.30;99.90
19974;DHT22;10148;47.694;9.442;2022-08-11T09:10:47;22.50;99.90
19974;DHT22;10148;47.694;9.442;2022-08-11T09:13:33;22.60;99.90
19974;DHT22;10148;47.694;9.442;2022-08-11T09:16:03;22.70;99.90
19974;DHT22;10148;47.694;9.442;2022-08-11T09:18:29;22.70;99.90
19974;DHT22;10148;47.694;9.442;2022-08-11T09:20:56;22.60;99.90
19974;DHT22;10148;47.694;9.442;2022-08-11T09:23:22;22.60;99.90
19974;DHT22;10148;47.694;9.442;2022-08-11T09:26:07;22.70;99.90
19974;DHT22;10148;47.694;9.442;2022-08-11T09:28:52;22.80;99.90
19974;DHT22;10148;47.694;9.442;2022-08-11T09:31:18;22.90;99.90
19974;DHT22;10148;47.694;9.442;2022-08-11T09:33:47;22.90;99.90
19974;DHT22;10148;47.694;9.442;2022-08-11T09:36:17;22.90;99.90
19974;DHT22;10148;47.694;9.442;2022-08-11T09:39:04;23.20;99.90
19974;DHT22;10148;47.694;9.442;2022-08-11T09:41:49;23.30;99.90
19974;DHT22;10148;47.694;9.442;2022-08-11T09:44:15;23.40;99.90
19974;DHT22;10148;47.694;9.442;2022-08-11T09:47:00;23.50;99.90
19974;DHT22;10148;47.694;9.442;2022-08-11T09:49:27;23.60;99.90
19974;DHT22;10148;47.694;9.442;2022-08-11T09:51:54;23.70;99.90
19974;DHT22;10148;47.694;9.442;2022-08-11T09:54:22;23.80;99.90
19974;DHT22;10148;47.694;9.442;2022-08-11T09:56:51;23.80;99.90
19974;DHT22;10148;47.694;9.442;2022-08-11T09:59:35;23.80;99.90
19974;DHT22;10148;47.694;9.442;2022-08-11T10:02:02;23.90;99.90
19974;DHT22;10148;47.694;9.442;2022-08-11T10:04:40;24.00;99.90
19974;DHT22;10148;47.694;9.442;2022-08-11T10:07:07;24.00;99.90
19974;DHT22;10148;47.694;9.442;2022-08-11T10:12:09;24.30;99.90
19974;DHT22;10148;47.694;9.442;2022-08-11T10:14:40;24.70;99.90
19974;DHT22;10148;47.694;9.442;2022-08-11T10:17:24;25.00;99.90
19974;DHT22;10148;47.694;9.442;2022-08-11T10:19:52;25.20;99.90
19974;DHT22;10148;47.694;9.442;2022-08-11T10:22:22;25.10;99.90
19974;DHT22;10148;47.694;9.442;2022-08-11T10:25:07;25.10;99.90
19974;DHT22;10148;47.694;9.442;2022-08-11T10:27:52;25.20;99.90
19974;DHT22;10148;47.694;9.442;2022-08-11T10:30:24;25.30;99.90
19974;DHT22;10148;47.694;9.442;2022-08-11T10:33:11;25.40;99.90
19974;DHT22;10148;47.694;9.442;2022-08-11T10:35:57;25.50;99.90
19974;DHT22;10148;47.694;9.442;2022-08-11T10:38:24;25.50;99.90
19974;DHT22;10148;47.694;9.442;2022-08-11T10:40:51;25.50;99.90
19974;DHT22;10148;47.694;9.442;2022-08-11T10:43:38;25.50;99.90
19974;DHT22;10148;47.694;9.442;2022-08-11T10:46:08;25.50;99.90
19974;DHT22;10148;47.694;9.442;2022-08-11T10:48:54;25.40;99.90
19974;DHT22;10148;47.694;9.442;2022-08-11T10:51:20;25.40;99.90
19974;DHT22;10148;47.694;9.442;2022-08-11T10:53:49;25.60;99.90
19974;DHT22;10148;47.694;9.442;2022-08-11T10:56:37;25.60;99.90
19974;DHT22;10148;47.694;9.442;2022-08-11T10:59:24;25.80;99.90
19974;DHT22;10148;47.694;9.442;2022-08-11T11:01:52;26.20;99.90
19974;DHT22;10148;47.694;9.442;2022-08-11T11:04:23;26.40;99.90
19974;DHT22;10148;47.694;9.442;2022-08-11T11:07:08;26.50;99.90
19974;DHT22;10148;47.694;9.442;2022-08-11T11:15:01;26.70;99.90
19974;DHT22;10148;47.694;9.442;2022-08-11T11:18:05;26.90;99.90
19974;DHT22;10148;47.694;9.442;2022-08-11T11:21:04;27.10;99.90
19974;DHT22;10148;47.694;9.442;2022-08-11T11:26:50;27.10;99.90
19974;DHT22;10148;47.694;9.442;2022-08-11T11:29:38;27.20;99.90
19974;DHT22;10148;47.694;9.442;2022-08-11T11:32:17;27.40;99.90
19974;DHT22;10148;47.694;9.442;2022-08-11T11:37:33;27.80;99.90
19974;DHT22;10148;47.694;9.442;2022-08-11T11:40:00;27.90;99.90
19974;DHT22;10148;47.694;9.442;2022-08-11T11:42:27;27.90;99.90
19974;DHT22;10148;47.694;9.442;2022-08-11T11:44:54;27.80;99.90
19974;DHT22;10148;47.694;9.442;2022-08-11T11:47:20;27.90;99.90
19974;DHT22;10148;47.694;9.442;2022-08-11T11:49:48;28.00;99.90
19974;DHT22;10148;47.694;9.442;2022-08-11T11:52:19;28.00;99.90
19974;DHT22;10148;47.694;9.442;2022-08-11T11:54:51;28.00;99.90
19974;DHT22;10148;47.694;9.442;2022-08-11T11:57:19;28.10;99.90
19974;DHT22;10148;47.694;9.442;2022-08-11T12:00:08;28.20;99.90
19974;DHT22;10148;47.694;9.442;2022-08-11T12:02:54;28.40;99.90
19974;DHT22;10148;47.694;9.442;2022-08-11T12:05:21;28.20;99.90
19974;DHT22;10148;47.694;9.442;2022-08-11T12:07:47;28.30;99.90
19974;DHT22;10148;47.694;9.442;2022-08-11T12:10:31;28.30;99.90
19974;DHT22;10148;47.694;9.442;2022-08-11T12:13:00;28.50;99.90
19974;DHT22;10148;47.694;9.442;2022-08-11T12:15:46;28.60;99.90
19974;DHT22;10148;47.694;9.442;2022-08-11T12:18:13;28.70;99.90
19974;DHT22;10148;47.694;9.442;2022-08-11T12:20:41;28.70;99.90
19974;DHT22;10148;47.694;9.442;2022-08-11T12:23:08;28.70;99.90
19974;DHT22;10148;47.694;9.442;2022-08-11T12:25:52;28.90;99.90
19974;DHT22;10148;47.694;9.442;2022-08-11T12:28:37;29.00;99.90
19974;DHT22;10148;47.694;9.442;2022-08-11T12:31:04;29.30;99.90
19974;DHT22;10148;47.694;9.442;2022-08-11T12:33:30;29.50;99.90
19974;DHT22;10148;47.694;9.442;2022-08-11T12:35:58;29.70;99.90
19974;DHT22;10148;47.694;9.442;2022-08-11T12:38:24;29.80;99.90
19974;DHT22;10148;47.694;9.442;2022-08-11T12:40:51;29.70;99.90
19974;DHT22;10148;47.694;9.442;2022-08-11T12:43:37;29.70;99.90
19974;DHT22;10148;47.694;9.442;2022-08-11T12:46:30;29.80;99.90
19974;DHT22;10148;47.694;9.442;2022-08-11T12:48:58;30.10;99.90
19974;DHT22;10148;47.694;9.442;2022-08-11T12:51:50;30.30;99.90
19974;DHT22;10148;47.694;9.442;2022-08-11T12:56:59;30.30;99.90
19974;DHT22;10148;47.694;9.442;2022-08-11T12:59:44;30.50;99.90
19974;DHT22;10148;47.694;9.442;2022-08-11T13:02:29;30.40;99.90
19974;DHT22;10148;47.694;9.442;2022-08-11T13:05:14;30.20;99.90
19974;DHT22;10148;47.694;9.442;2022-08-11T13:07:44;30.40;99.90
19974;DHT22;10148;47.694;9.442;2022-08-11T13:10:13;30.70;99.90
19974;DHT22;10148;47.694;9.442;2022-08-11T13:12:40;30.90;99.90
19974;DHT22;10148;47.694;9.442;2022-08-11T13:15:18;30.90;99.90
19974;DHT22;10148;47.694;9.442;2022-08-11T13:17:45;30.80;99.90
19974;DHT22;10148;47.694;9.442;2022-08-11T13:20:16;30.80;99.90
19974;DHT22;10148;47.694;9.442;2022-08-11T13:22:46;31.00;99.90
19974;DHT22;10148;47.694;9.442;2022-08-11T13:25:15;31.10;99.90
19974;DHT22;10148;47.694;9.442;2022-08-11T13:27:42;31.10;99.90
19974;DHT22;10148;47.694;9.442;2022-08-11T13:30:09;31.30;99.90
19974;DHT22;10148;47.694;9.442;2022-08-11T13:32:53;31.20;99.90
19974;DHT22;10148;47.694;9.442;2022-08-11T13:35:21;31.30;99.90
19974;DHT22;10148;47.694;9.442;2022-08-11T13:37:48;31.60;99.90
19974;DHT22;10148;47.694;9.442;2022-08-11T13:40:16;31.70;99.90
19974;DHT22;10148;47.694;9.442;2022-08-11T13:42:44;31.80;99.90
19974;DHT22;10148;47.694;9.442;2022-08-11T13:45:10;31.90;99.90
19974;DHT22;10148;47.694;9.442;2022-08-11T13:47:37;31.90;99.90
19974;DHT22;10148;47.694;9.442;2022-08-11T13:50:05;32.10;99.90
19974;DHT22;10148;47.694;9.442;2022-08-11T13:52:31;32.10;99.30
19974;DHT22;10148;47.694;9.442;2022-08-11T13:54:58;32.10;99.00
19974;DHT22;10148;47.694;9.442;2022-08-11T13:57:24;32.20;99.10
19974;DHT22;10148;47.694;9.442;2022-08-11T13:59:54;32.40;99.00
19974;DHT22;10148;47.694;9.442;2022-08-11T14:02:34;32.40;97.90
19974;DHT22;10148;47.694;9.442;2022-08-11T14:05:04;32.00;98.10
19974;DHT22;10148;47.694;9.442;2022-08-11T14:07:45;31.60;98.30
19974;DHT22;10148;47.694;9.442;2022-08-11T14:10:12;31.80;98.00
19974;DHT22;10148;47.694;9.442;2022-08-11T14:12:40;31.90;97.60
19974;DHT22;10148;47.694;9.442;2022-08-11T14:15:35;31.80;97.80
19974;DHT22;10148;47.694;9.442;2022-08-11T14:18:21;31.90;97.20
19974;DHT22;10148;47.694;9.442;2022-08-11T14:20:55;32.10;97.30
19974;DHT22;10148;47.694;9.442;2022-08-11T14:23:41;32.30;96.80
19974;DHT22;10148;47.694;9.442;2022-08-11T14:26:12;32.30;96.90
19974;DHT22;10148;47.694;9.442;2022-08-11T14:29:03;32.50;97.10
19974;DHT22;10148;47.694;9.442;2022-08-11T14:31:31;32.80;96.60
19974;DHT22;10148;47.694;9.442;2022-08-11T14:34:01;33.00;96.60
19974;DHT22;10148;47.694;9.442;2022-08-11T14:36:34;33.00;95.90
19974;DHT22;10148;47.694;9.442;2022-08-11T14:39:04;33.10;95.70
19974;DHT22;10148;47.694;9.442;2022-08-11T14:41:30;32.90;95.40
19974;DHT22;10148;47.694;9.442;2022-08-11T14:44:15;32.90;95.70
19974;DHT22;10148;47.694;9.442;2022-08-11T14:47:01;32.90;95.60
19974;DHT22;10148;47.694;9.442;2022-08-11T14:49:31;32.70;95.10
19974;DHT22;10148;47.694;9.442;2022-08-11T14:52:01;32.60;95.00
19974;DHT22;10148;47.694;9.442;2022-08-11T14:54:29;32.90;95.10
19974;DHT22;10148;47.694;9.442;2022-08-11T14:57:14;33.00;95.50
19974;DHT22;10148;47.694;9.442;2022-08-11T14:59:41;33.00;94.40
19974;DHT22;10148;47.694;9.442;2022-08-11T15:02:07;33.10;94.00
19974;DHT22;10148;47.694;9.442;2022-08-11T15:04:52;33.00;93.60
19974;DHT22;10148;47.694;9.442;2022-08-11T15:07:21;33.00;93.90
19974;DHT22;10148;47.694;9.442;2022-08-11T15:10:00;32.90;94.00
19974;DHT22;10148;47.694;9.442;2022-08-11T15:12:27;32.70;93.90
19974;DHT22;10148;47.694;9.442;2022-08-11T15:14:53;32.80;93.80
19974;DHT22;10148;47.694;9.442;2022-08-11T15:17:39;32.80;93.40
19974;DHT22;10148;47.694;9.442;2022-08-11T15:20:08;32.90;93.30
19974;DHT22;10148;47.694;9.442;2022-08-11T15:22:53;32.70;93.20
19974;DHT22;10148;47.694;9.442;2022-08-11T15:25:37;32.80;92.70
19974;DHT22;10148;47.694;9.442;2022-08-11T15:28:06;32.60;92.80
19974;DHT22;10148;47.694;9.442;2022-08-11T15:30:54;32.70;93.30
19974;DHT22;10148;47.694;9.442;2022-08-11T15:33:41;32.90;92.90
19974;DHT22;10148;47.694;9.442;2022-08-11T15:36:29;32.90;93.10
19974;DHT22;10148;47.694;9.442;2022-08-11T15:39:20;32.70;92.80
19974;DHT22;10148;47.694;9.442;2022-08-11T15:41:57;32.20;93.10
19974;DHT22;10148;47.694;9.442;2022-08-11T15:44:48;32.10;93.80
19974;DHT22;10148;47.694;9.442;2022-08-11T15:47:48;32.40;93.30
19974;DHT22;10148;47.694;9.442;2022-08-11T15:50:23;32.40;93.00
19974;DHT22;10148;47.694;9.442;2022-08-11T15:52:54;32.20;93.60
19974;DHT22;10148;47.694;9.442;2022-08-11T15:55:22;32.50;92.70
19974;DHT22;10148;47.694;9.442;2022-08-11T15:57:50;32.60;92.60
19974;DHT22;10148;47.694;9.442;2022-08-11T16:00:56;32.60;92.80
19974;DHT22;10148;47.694;9.442;2022-08-11T16:03:46;32.50;93.20
19974;DHT22;10148;47.694;9.442;2022-08-11T16:06:32;32.40;92.80
19974;DHT22;10148;47.694;9.442;2022-08-11T16:09:02;32.00;92.70
19974;DHT22;10148;47.694;9.442;2022-08-11T16:11:32;32.00;93.50
19974;DHT22;10148;47.694;9.442;2022-08-11T16:14:02;32.10;93.80
19974;DHT22;10148;47.694;9.442;2022-08-11T16:16:48;32.20;93.00
19974;DHT22;10148;47.694;9.442;2022-08-11T16:19:15;32.30;93.60
19974;DHT22;10148;47.694;9.442;2022-08-11T16:21:43;32.40;93.70
19974;DHT22;10148;47.694;9.442;2022-08-11T16:24:12;32.40;93.90
19974;DHT22;10148;47.694;9.442;2022-08-11T16:26:40;32.20;93.60
19974;DHT22;10148;47.694;9.442;2022-08-11T16:29:07;32.10;93.80
19974;DHT22;10148;47.694;9.442;2022-08-11T16:31:35;32.00;93.70
19974;DHT22;10148;47.694;9.442;2022-08-11T16:34:02;32.10;94.20
19974;DHT22;10148;47.694;9.442;2022-08-11T16:36:29;32.00;93.10
19974;DHT22;10148;47.694;9.442;2022-08-11T16:39:13;31.90;92.00
19974;DHT22;10148;47.694;9.442;2022-08-11T16:41:43;31.60;92.10
19974;DHT22;10148;47.694;9.442;2022-08-11T16:44:28;31.60;92.10
19974;DHT22;10148;47.694;9.442;2022-08-11T16:47:16;31.30;92.60
19974;DHT22;10148;47.694;9.442;2022-08-11T16:50:01;31.20;93.60
19974;DHT22;10148;47.694;9.442;2022-08-11T16:52:27;31.00;93.80
19974;DHT22;10148;47.694;9.442;2022-08-11T16:54:53;31.00;94.00
19974;DHT22;10148;47.694;9.442;2022-08-11T16:57:23;31.00;93.90
19974;DHT22;10148;47.694;9.442;2022-08-11T17:00:09;30.90;93.60
19974;DHT22;10148;47.694;9.442;2022-08-11T17:02:45;31.00;94.00
19974;DHT22;10148;47.694;9.442;2022-08-11T17:05:33;31.00;94.00
19974;DHT22;10148;47.694;9.442;2022-08-11T17:08:20;31.00;94.10
19974;DHT22;10148;47.694;9.442;2022-08-11T17:11:07;30.80;94.10
19974;DHT22;10148;47.694;9.442;2022-08-11T17:14:03;30.60;94.00
19974;DHT22;10148;47.694;9.442;2022-08-11T17:16:37;30.50;94.10
19974;DHT22;10148;47.694;9.442;2022-08-11T17:19:10;30.40;93.80
19974;DHT22;10148;47.694;9.442;2022-08-11T17:21:40;30.30;93.70
19974;DHT22;10148;47.694;9.442;2022-08-11T17:24:44;30.30;94.10
19974;DHT22;10148;47.694;9.442;2022-08-11T17:27:14;30.10;94.80
19974;DHT22;10148;47.694;9.442;2022-08-11T17:29:49;30.10;94.70
19974;DHT22;10148;47.694;9.442;2022-08-11T17:32:20;30.00;95.20
19974;DHT22;10148;47.694;9.442;2022-08-11T17:35:09;30.30;94.80
19974;DHT22;10148;47.694;9.442;2022-08-11T17:38:03;30.60;94.30
19974;DHT22;10148;47.694;9.442;2022-08-11T17:40:31;30.80;94.40
19974;DHT22;10148;47.694;9.442;2022-08-11T17:42:59;30.80;94.40
19974;DHT22;10148;47.694;9.442;2022-08-11T17:45:45;31.00;94.10
19974;DHT22;10148;47.694;9.442;2022-08-11T17:48:38;31.20;93.90
19974;DHT22;10148;47.694;9.442;2022-08-11T17:51:13;31.30;93.70
19974;DHT22;10148;47.694;9.442;2022-08-11T17:54:02;31.40;93.60
19974;DHT22;10148;47.694;9.442;2022-08-11T17:56:48;31.30;93.40
19974;DHT22;10148;47.694;9.442;2022-08-11T17:59:35;31.10;93.50
19974;DHT22;10148;47.694;9.442;2022-08-11T18:02:20;30.90;94.00
19974;DHT22;10148;47.694;9.442;2022-08-11T18:05:05;30.80;94.00
19974;DHT22;10148;47.694;9.442;2022-08-11T18:07:31;30.50;94.00
19974;DHT22;10148;47.694;9.442;2022-08-11T18:10:16;30.30;94.40
19974;DHT22;10148;47.694;9.442;2022-08-11T18:13:01;30.00;94.70
19974;DHT22;10148;47.694;9.442;2022-08-11T18:15:47;29.80;94.80
19974;DHT22;10148;47.694;9.442;2022-08-11T18:18:31;29.40;95.00
19974;DHT22;10148;47.694;9.442;2022-08-11T18:21:17;29.20;95.30
19974;DHT22;10148;47.694;9.442;2022-08-11T18:24:09;28.80;95.60
19974;DHT22;10148;47.694;9.442;2022-08-11T18:26:58;28.60;95.80
19974;DHT22;10148;47.694;9.442;2022-08-11T18:29:44;28.20;96.20
19974;DHT22;10148;47.694;9.442;2022-08-11T18:32:31;27.90;96.50
19974;DHT22;10148;47.694;9.442;2022-08-11T18:35:20;27.50;96.90
19974;DHT22;10148;47.694;9.442;2022-08-11T18:38:09;27.30;97.40
19974;DHT22;10148;47.694;9.442;2022-08-11T18:40:54;27.00;97.70
19974;DHT22;10148;47.694;9.442;2022-08-11T18:43:44;26.70;97.90
19974;DHT22;10148;47.694;9.442;2022-08-11T18:46:32;26.60;98.10
19974;DHT22;10148;47.694;9.442;2022-08-11T18:49:22;26.50;98.20
19974;DHT22;10148;47.694;9.442;2022-08-11T18:52:09;26.40;98.50
19974;DHT22;10148;47.694;9.442;2022-08-11T18:54:57;26.30;98.70
19974;DHT22;10148;47.694;9.442;2022-08-11T18:57:45;26.20;98.80
19974;DHT22;10148;47.694;9.442;2022-08-11T19:00:31;26.00;98.90
19974;DHT22;10148;47.694;9.442;2022-08-11T19:03:17;25.90;99.20
19974;DHT22;10148;47.694;9.442;2022-08-11T19:06:04;25.80;99.40
19974;DHT22;10148;47.694;9.442;2022-08-11T19:09:01;25.70;99.60
19974;DHT22;10148;47.694;9.442;2022-08-11T19:11:47;25.50;99.90
19974;DHT22;10148;47.694;9.442;2022-08-11T19:14:34;25.30;99.90
19974;DHT22;10148;47.694;9.442;2022-08-11T19:17:19;25.20;99.90
19974;DHT22;10148;47.694;9.442;2022-08-11T19:20:05;25.10;99.90
19974;DHT22;10148;47.694;9.442;2022-08-11T19:22:51;24.90;99.90
19974;DHT22;10148;47.694;9.442;2022-08-11T19:25:38;24.80;99.90
19974;DHT22;10148;47.694;9.442;2022-08-11T19:28:24;24.60;99.90
19974;DHT22;10148;47.694;9.442;2022-08-11T19:31:09;24.50;99.90
19974;DHT22;10148;47.694;9.442;2022-08-11T19:33:58;24.30;99.90
19974;DHT22;10148;47.694;9.442;2022-08-11T19:36:43;24.20;99.90
19974;DHT22;10148;47.694;9.442;2022-08-11T19:39:28;24.10;99.90
19974;DHT22;10148;47.694;9.442;2022-08-11T19:42:13;24.00;99.90
19974;DHT22;10148;47.694;9.442;2022-08-11T19:44:59;23.90;99.90
19974;DHT22;10148;47.694;9.442;2022-08-11T19:47:46;23.90;99.90
19974;DHT22;10148;47.694;9.442;2022-08-11T19:50:32;23.80;99.90